sensor_id;sensor_type;location;lat;lon;timestamp;P1;durP1;ratioP1;P2;durP2;ratioP2
20298;SDS011;10308;42.688;23.256;2022-09-01T00:01:44;11.88;;;10.77;;
20298;SDS011;10308;42.688;23.256;2022-09-01T00:04:14;11.65;;;10.65;;
20298;SDS011;10308;42.688;23.256;2022-09-01T00:06:43;12.90;;;11.77;;
20298;SDS011;10308;42.688;23.256;2022-09-01T00:09:10;12.57;;;11.38;;
20298;SDS011;10308;42.688;23.256;2022-09-01T00:11:38;13.70;;;12.27;;
20298;SDS011;10308;42.688;23.256;2022-09-01T00:14:07;12.85;;;11.57;;
20298;SDS011;10308;42.688;23.256;2022-09-01T00:16:34;12.82;;;11.73;;
20298;SDS011;10308;42.688;23.256;2022-09-01T00:19:02;13.25;;;11.85;;
20298;SDS011;10308;42.688;23.256;2022-09-01T00:21:31;13.25;;;11.88;;
20298;SDS011;10308;42.688;23.256;2022-09-01T00:24:00;12.93;;;11.63;;
20298;SDS011;10308;42.688;23.256;2022-09-01T00:26:27;13.43;;;12.13;;
20298;SDS011;10308;42.688;23.256;2022-09-01T00:28:54;13.52;;;11.82;;
20298;SDS011;10308;42.688;23.256;2022-09-01T00:31:21;13.75;;;12.43;;
20298;SDS011;10308;42.688;23.256;2022-09-01T00:33:48;12.77;;;11.55;;
20298;SDS011;10308;42.688;23.256;2022-09-01T00:36:16;11.85;;;10.73;;
20298;SDS011;10308;42.688;23.256;2022-09-01T00:38:45;12.18;;;11.07;;
20298;SDS011;10308;42.688;23.256;2022-09-01T00:41:12;12.68;;;11.50;;
20298;SDS011;10308;42.688;23.256;2022-09-01T00:43:40;12.77;;;11.57;;
20298;SDS011;10308;42.688;23.256;2022-09-01T00:46:10;12.75;;;11.65;;
20298;SDS011;10308;42.688;23.256;2022-09-01T00:48:38;12.50;;;11.35;;
20298;SDS011;10308;42.688;23.256;2022-09-01T00:51:06;12.18;;;11.07;;
20298;SDS011;10308;42.688;23.256;2022-09-01T00:53:33;13.30;;;11.60;;
20298;SDS011;10308;42.688;23.256;2022-09-01T00:56:02;12.82;;;11.68;;
20298;SDS011;10308;42.688;23.256;2022-09-01T00:58:29;13.18;;;12.07;;
20298;SDS011;10308;42.688;23.256;2022-09-01T01:00:57;12.32;;;11.20;;
20298;SDS011;10308;42.688;23.256;2022-09-01T01:03:23;12.30;;;11.00;;
20298;SDS011;10308;42.688;23.256;2022-09-01T01:05:51;12.45;;;11.13;;
20298;SDS011;10308;42.688;23.256;2022-09-01T01:08:19;11.73;;;10.63;;
20298;SDS011;10308;42.688;23.256;2022-09-01T01:10:58;11.00;;;10.00;;
20298;SDS011;10308;42.688;23.256;2022-09-01T01:13:27;11.68;;;10.65;;
20298;SDS011;10308;42.688;23.256;2022-09-01T01:15:56;11.52;;;10.40;;
20298;SDS011;10308;42.688;23.256;2022-09-01T01:18:24;11.18;;;10.18;;
20298;SDS011;10308;42.688;23.256;2022-09-01T01:20:55;12.55;;;11.30;;
20298;SDS011;10308;42.688;23.256;2022-09-01T01:23:42;11.45;;;10.43;;
20298;SDS011;10308;42.688;23.256;2022-09-01T01:26:14;12.18;;;11.07;;
20298;SDS011;10308;42.688;23.256;2022-09-01T01:28:42;11.32;;;10.32;;
20298;SDS011;10308;42.688;23.256;2022-09-01T01:31:10;11.43;;;10.32;;
20298;SDS011;10308;42.688;23.256;2022-09-01T01:33:39;11.20;;;10.30;;
20298;SDS011;10308;42.688;23.256;2022-09-01T01:36:08;11.50;;;10.38;;
20298;SDS011;10308;42.688;23.256;2022-09-01T01:38:37;11.82;;;10.77;;
20298;SDS011;10308;42.688;23.256;2022-09-01T01:41:06;11.95;;;10.82;;
20298;SDS011;10308;42.688;23.256;2022-09-01T01:43:35;11.93;;;10.82;;
20298;SDS011;10308;42.688;23.256;2022-09-01T01:46:03;12.27;;;11.18;;
20298;SDS011;10308;42.688;23.256;2022-09-01T01:48:32;12.20;;;11.10;;
20298;SDS011;10308;42.688;23.256;2022-09-01T01:51:01;14.07;;;12.63;;
20298;SDS011;10308;42.688;23.256;2022-09-01T01:53:29;13.43;;;12.02;;
20298;SDS011;10308;42.688;23.256;2022-09-01T01:55:56;13.90;;;12.05;;
20298;SDS011;10308;42.688;23.256;2022-09-01T01:58:24;12.43;;;11.23;;
20298;SDS011;10308;42.688;23.256;2022-09-01T02:00:55;12.15;;;11.05;;
20298;SDS011;10308;42.688;23.256;2022-09-01T02:03:24;13.00;;;11.80;;
20298;SDS011;10308;42.688;23.256;2022-09-01T02:05:53;14.73;;;11.35;;
20298;SDS011;10308;42.688;23.256;2022-09-01T02:08:21;12.45;;;11.32;;
20298;SDS011;10308;42.688;23.256;2022-09-01T02:10:51;12.68;;;11.48;;
20298;SDS011;10308;42.688;23.256;2022-09-01T02:13:20;12.52;;;11.32;;
20298;SDS011;10308;42.688;23.256;2022-09-01T02:15:49;12.52;;;11.32;;
20298;SDS011;10308;42.688;23.256;2022-09-01T02:18:20;12.25;;;11.02;;
20298;SDS011;10308;42.688;23.256;2022-09-01T02:20:49;12.55;;;10.93;;
20298;SDS011;10308;42.688;23.256;2022-09-01T02:23:17;11.50;;;10.50;;
20298;SDS011;10308;42.688;23.256;2022-09-01T02:25:47;12.68;;;11.48;;
20298;SDS011;10308;42.688;23.256;2022-09-01T02:28:16;12.32;;;11.15;;
20298;SDS011;10308;42.688;23.256;2022-09-01T02:30:44;12.45;;;11.25;;
20298;SDS011;10308;42.688;23.256;2022-09-01T02:33:13;10.75;;;9.68;;
20298;SDS011;10308;42.688;23.256;2022-09-01T02:35:44;12.95;;;11.60;;
20298;SDS011;10308;42.688;23.256;2022-09-01T02:38:11;12.20;;;10.98;;
20298;SDS011;10308;42.688;23.256;2022-09-01T02:40:39;11.48;;;10.38;;
20298;SDS011;10308;42.688;23.256;2022-09-01T02:43:09;12.10;;;10.93;;
20298;SDS011;10308;42.688;23.256;2022-09-01T02:45:37;17.98;;;13.05;;
20298;SDS011;10308;42.688;23.256;2022-09-01T02:48:08;19.65;;;13.98;;
20298;SDS011;10308;42.688;23.256;2022-09-01T02:50:36;16.83;;;13.68;;
20298;SDS011;10308;42.688;23.256;2022-09-01T02:53:04;12.70;;;11.38;;
20298;SDS011;10308;42.688;23.256;2022-09-01T02:55:34;15.40;;;12.73;;
20298;SDS011;10308;42.688;23.256;2022-09-01T02:58:01;13.98;;;12.57;;
20298;SDS011;10308;42.688;23.256;2022-09-01T03:00:28;14.00;;;12.23;;
20298;SDS011;10308;42.688;23.256;2022-09-01T03:02:59;14.20;;;12.57;;
20298;SDS011;10308;42.688;23.256;2022-09-01T03:05:28;14.77;;;11.95;;
20298;SDS011;10308;42.688;23.256;2022-09-01T03:08:00;12.88;;;11.55;;
20298;SDS011;10308;42.688;23.256;2022-09-01T03:10:30;13.15;;;11.68;;
20298;SDS011;10308;42.688;23.256;2022-09-01T03:12:59;12.45;;;11.32;;
20298;SDS011;10308;42.688;23.256;2022-09-01T03:15:27;11.25;;;9.98;;
20298;SDS011;10308;42.688;23.256;2022-09-01T03:17:54;12.20;;;11.10;;
20298;SDS011;10308;42.688;23.256;2022-09-01T03:20:25;11.60;;;10.57;;
20298;SDS011;10308;42.688;23.256;2022-09-01T03:22:53;13.32;;;11.40;;
20298;SDS011;10308;42.688;23.256;2022-09-01T03:25:22;12.23;;;11.13;;
20298;SDS011;10308;42.688;23.256;2022-09-01T03:27:50;12.35;;;11.00;;
20298;SDS011;10308;42.688;23.256;2022-09-01T03:30:17;13.60;;;11.90;;
20298;SDS011;10308;42.688;23.256;2022-09-01T03:32:45;12.57;;;11.43;;
20298;SDS011;10308;42.688;23.256;2022-09-01T03:35:13;13.20;;;11.82;;
20298;SDS011;10308;42.688;23.256;2022-09-01T03:37:41;12.13;;;11.00;;
20298;SDS011;10308;42.688;23.256;2022-09-01T03:40:09;13.10;;;11.75;;
20298;SDS011;10308;42.688;23.256;2022-09-01T03:42:37;12.45;;;11.25;;
20298;SDS011;10308;42.688;23.256;2022-09-01T03:45:06;15.65;;;11.98;;
20298;SDS011;10308;42.688;23.256;2022-09-01T03:47:37;12.20;;;11.00;;
20298;SDS011;10308;42.688;23.256;2022-09-01T03:50:05;11.90;;;10.88;;
20298;SDS011;10308;42.688;23.256;2022-09-01T03:52:35;12.90;;;11.70;;
20298;SDS011;10308;42.688;23.256;2022-09-01T03:55:05;12.30;;;11.18;;
20298;SDS011;10308;42.688;23.256;2022-09-01T03:57:34;11.50;;;10.32;;
20298;SDS011;10308;42.688;23.256;2022-09-01T04:00:02;12.77;;;11.48;;
20298;SDS011;10308;42.688;23.256;2022-09-01T04:02:32;12.93;;;11.18;;
20298;SDS011;10308;42.688;23.256;2022-09-01T04:04:59;12.73;;;10.40;;
20298;SDS011;10308;42.688;23.256;2022-09-01T04:07:26;11.77;;;10.68;;
20298;SDS011;10308;42.688;23.256;2022-09-01T04:09:53;12.23;;;11.13;;
20298;SDS011;10308;42.688;23.256;2022-09-01T04:12:24;11.23;;;10.25;;
20298;SDS011;10308;42.688;23.256;2022-09-01T04:14:51;11.43;;;10.32;;
20298;SDS011;10308;42.688;23.256;2022-09-01T04:17:18;11.90;;;10.70;;
20298;SDS011;10308;42.688;23.256;2022-09-01T04:20:14;11.25;;;10.23;;
20298;SDS011;10308;42.688;23.256;2022-09-01T04:22:44;15.13;;;11.85;;
20298;SDS011;10308;42.688;23.256;2022-09-01T04:25:11;13.25;;;11.95;;
20298;SDS011;10308;42.688;23.256;2022-09-01T04:27:39;13.80;;;11.85;;
20298;SDS011;10308;42.688;23.256;2022-09-01T04:30:06;14.25;;;12.85;;
20298;SDS011;10308;42.688;23.256;2022-09-01T04:32:36;15.80;;;13.10;;
20298;SDS011;10308;42.688;23.256;2022-09-01T04:35:05;14.77;;;13.18;;
20298;SDS011;10308;42.688;23.256;2022-09-01T04:37:37;16.00;;;13.93;;
20298;SDS011;10308;42.688;23.256;2022-09-01T04:40:04;14.30;;;12.82;;
20298;SDS011;10308;42.688;23.256;2022-09-01T04:42:32;17.02;;;13.82;;
20298;SDS011;10308;42.688;23.256;2022-09-01T04:44:59;14.98;;;13.45;;
20298;SDS011;10308;42.688;23.256;2022-09-01T04:47:27;14.30;;;12.95;;
20298;SDS011;10308;42.688;23.256;2022-09-01T04:49:55;14.13;;;12.63;;
20298;SDS011;10308;42.688;23.256;2022-09-01T04:52:23;14.63;;;13.25;;
20298;SDS011;10308;42.688;23.256;2022-09-01T04:54:51;15.63;;;13.57;;
20298;SDS011;10308;42.688;23.256;2022-09-01T04:57:19;15.30;;;13.70;;
20298;SDS011;10308;42.688;23.256;2022-09-01T04:59:45;14.77;;;13.20;;
20298;SDS011;10308;42.688;23.256;2022-09-01T05:02:12;14.10;;;12.60;;
20298;SDS011;10308;42.688;23.256;2022-09-01T05:04:39;15.43;;;13.00;;
20298;SDS011;10308;42.688;23.256;2022-09-01T05:07:10;14.52;;;12.73;;
20298;SDS011;10308;42.688;23.256;2022-09-01T05:09:38;16.25;;;13.18;;
20298;SDS011;10308;42.688;23.256;2022-09-01T05:12:06;14.60;;;13.00;;
20298;SDS011;10308;42.688;23.256;2022-09-01T05:14:36;14.85;;;13.25;;
20298;SDS011;10308;42.688;23.256;2022-09-01T05:17:06;15.30;;;12.93;;
20298;SDS011;10308;42.688;23.256;2022-09-01T05:19:34;14.15;;;12.85;;
20298;SDS011;10308;42.688;23.256;2022-09-01T05:22:02;13.55;;;12.15;;
20298;SDS011;10308;42.688;23.256;2022-09-01T05:24:29;12.95;;;11.75;;
20298;SDS011;10308;42.688;23.256;2022-09-01T05:26:59;13.88;;;12.50;;
20298;SDS011;10308;42.688;23.256;2022-09-01T05:29:27;14.82;;;13.50;;
20298;SDS011;10308;42.688;23.256;2022-09-01T05:31:54;13.13;;;11.82;;
20298;SDS011;10308;42.688;23.256;2022-09-01T05:34:21;13.27;;;11.93;;
20298;SDS011;10308;42.688;23.256;2022-09-01T05:36:53;12.70;;;11.57;;
20298;SDS011;10308;42.688;23.256;2022-09-01T05:39:21;13.93;;;12.73;;
20298;SDS011;10308;42.688;23.256;2022-09-01T05:41:49;12.70;;;11.60;;
20298;SDS011;10308;42.688;23.256;2022-09-01T05:44:18;13.25;;;11.95;;
20298;SDS011;10308;42.688;23.256;2022-09-01T05:46:48;12.93;;;11.73;;
20298;SDS011;10308;42.688;23.256;2022-09-01T05:49:15;13.35;;;12.05;;
20298;SDS011;10308;42.688;23.256;2022-09-01T05:51:44;12.73;;;11.52;;
20298;SDS011;10308;42.688;23.256;2022-09-01T05:54:13;13.68;;;12.38;;
20298;SDS011;10308;42.688;23.256;2022-09-01T05:56:41;12.57;;;11.48;;
20298;SDS011;10308;42.688;23.256;2022-09-01T05:59:08;12.45;;;11.35;;
20298;SDS011;10308;42.688;23.256;2022-09-01T06:01:35;11.27;;;10.25;;
20298;SDS011;10308;42.688;23.256;2022-09-01T06:04:07;11.98;;;10.88;;
20298;SDS011;10308;42.688;23.256;2022-09-01T06:06:36;13.55;;;12.15;;
20298;SDS011;10308;42.688;23.256;2022-09-01T06:09:05;13.45;;;12.25;;
20298;SDS011;10308;42.688;23.256;2022-09-01T06:11:33;13.30;;;12.10;;
20298;SDS011;10308;42.688;23.256;2022-09-01T06:14:00;13.70;;;12.40;;
20298;SDS011;10308;42.688;23.256;2022-09-01T06:16:27;14.48;;;13.15;;
20298;SDS011;10308;42.688;23.256;2022-09-01T06:18:55;15.88;;;14.32;;
20298;SDS011;10308;42.688;23.256;2022-09-01T06:21:25;16.45;;;14.93;;
20298;SDS011;10308;42.688;23.256;2022-09-01T06:23:53;17.33;;;15.63;;
20298;SDS011;10308;42.688;23.256;2022-09-01T06:26:21;19.15;;;17.48;;
20298;SDS011;10308;42.688;23.256;2022-09-01T06:28:51;20.02;;;18.08;;
20298;SDS011;10308;42.688;23.256;2022-09-01T06:31:19;21.38;;;19.17;;
20298;SDS011;10308;42.688;23.256;2022-09-01T06:33:48;21.02;;;18.77;;
20298;SDS011;10308;42.688;23.256;2022-09-01T06:36:18;21.02;;;19.02;;
20298;SDS011;10308;42.688;23.256;2022-09-01T06:38:47;21.15;;;18.95;;
20298;SDS011;10308;42.688;23.256;2022-09-01T06:41:16;20.88;;;18.77;;
20298;SDS011;10308;42.688;23.256;2022-09-01T06:43:44;21.00;;;18.80;;
20298;SDS011;10308;42.688;23.256;2022-09-01T06:46:13;21.73;;;19.50;;
20298;SDS011;10308;42.688;23.256;2022-09-01T06:48:41;20.05;;;18.05;;
20298;SDS011;10308;42.688;23.256;2022-09-01T06:51:11;21.15;;;19.05;;
20298;SDS011;10308;42.688;23.256;2022-09-01T06:53:39;22.45;;;20.15;;
20298;SDS011;10308;42.688;23.256;2022-09-01T06:56:08;22.65;;;19.80;;
20298;SDS011;10308;42.688;23.256;2022-09-01T06:58:37;22.20;;;19.55;;
20298;SDS011;10308;42.688;23.256;2022-09-01T07:01:06;23.90;;;20.48;;
20298;SDS011;10308;42.688;23.256;2022-09-01T07:03:40;22.10;;;19.85;;
20298;SDS011;10308;42.688;23.256;2022-09-01T07:06:07;23.60;;;21.20;;
20298;SDS011;10308;42.688;23.256;2022-09-01T07:08:35;21.85;;;19.70;;
20298;SDS011;10308;42.688;23.256;2022-09-01T07:11:04;22.13;;;19.92;;
20298;SDS011;10308;42.688;23.256;2022-09-01T07:13:34;23.73;;;20.65;;
20298;SDS011;10308;42.688;23.256;2022-09-01T07:16:02;22.95;;;20.73;;
20298;SDS011;10308;42.688;23.256;2022-09-01T07:18:30;22.23;;;19.90;;
20298;SDS011;10308;42.688;23.256;2022-09-01T07:20:58;23.20;;;20.20;;
20298;SDS011;10308;42.688;23.256;2022-09-01T07:23:31;24.08;;;21.50;;
20298;SDS011;10308;42.688;23.256;2022-09-01T07:25:58;24.08;;;21.58;;
20298;SDS011;10308;42.688;23.256;2022-09-01T07:28:25;23.00;;;20.55;;
20298;SDS011;10308;42.688;23.256;2022-09-01T07:30:58;23.77;;;21.38;;
20298;SDS011;10308;42.688;23.256;2022-09-01T07:33:25;23.00;;;20.42;;
20298;SDS011;10308;42.688;23.256;2022-09-01T07:35:54;22.40;;;19.58;;
20298;SDS011;10308;42.688;23.256;2022-09-01T07:38:21;24.42;;;21.90;;
20298;SDS011;10308;42.688;23.256;2022-09-01T07:40:48;23.52;;;20.42;;
20298;SDS011;10308;42.688;23.256;2022-09-01T07:43:19;23.95;;;21.65;;
20298;SDS011;10308;42.688;23.256;2022-09-01T07:45:48;23.58;;;21.15;;
20298;SDS011;10308;42.688;23.256;2022-09-01T07:48:18;24.30;;;21.83;;
20298;SDS011;10308;42.688;23.256;2022-09-01T07:50:46;24.20;;;21.75;;
20298;SDS011;10308;42.688;23.256;2022-09-01T07:53:18;25.50;;;22.80;;
20298;SDS011;10308;42.688;23.256;2022-09-01T07:55:48;25.42;;;22.67;;
20298;SDS011;10308;42.688;23.256;2022-09-01T07:58:16;26.63;;;22.23;;
20298;SDS011;10308;42.688;23.256;2022-09-01T08:00:44;23.50;;;21.00;;
20298;SDS011;10308;42.688;23.256;2022-09-01T08:03:11;24.40;;;21.80;;
20298;SDS011;10308;42.688;23.256;2022-09-01T08:05:42;24.98;;;22.35;;
20298;SDS011;10308;42.688;23.256;2022-09-01T08:08:09;25.48;;;22.95;;
20298;SDS011;10308;42.688;23.256;2022-09-01T08:10:37;24.95;;;22.45;;
20298;SDS011;10308;42.688;23.256;2022-09-01T08:13:05;24.80;;;22.35;;
20298;SDS011;10308;42.688;23.256;2022-09-01T08:15:32;23.95;;;21.55;;
20298;SDS011;10308;42.688;23.256;2022-09-01T08:17:59;27.13;;;23.52;;
20298;SDS011;10308;42.688;23.256;2022-09-01T08:20:26;26.58;;;23.88;;
20298;SDS011;10308;42.688;23.256;2022-09-01T08:22:55;25.50;;;22.90;;
20298;SDS011;10308;42.688;23.256;2022-09-01T08:25:22;25.83;;;23.17;;
20298;SDS011;10308;42.688;23.256;2022-09-01T08:27:50;25.17;;;22.52;;
20298;SDS011;10308;42.688;23.256;2022-09-01T08:30:17;24.63;;;21.98;;
20298;SDS011;10308;42.688;23.256;2022-09-01T08:32:44;22.98;;;20.63;;
20298;SDS011;10308;42.688;23.256;2022-09-01T08:35:11;23.27;;;20.48;;
20298;SDS011;10308;42.688;23.256;2022-09-01T08:37:40;21.77;;;19.48;;
20298;SDS011;10308;42.688;23.256;2022-09-01T08:40:12;21.15;;;19.00;;
20298;SDS011;10308;42.688;23.256;2022-09-01T08:42:43;21.33;;;19.17;;
20298;SDS011;10308;42.688;23.256;2022-09-01T08:45:19;21.83;;;19.58;;
20298;SDS011;10308;42.688;23.256;2022-09-01T08:47:47;21.80;;;19.58;;
20298;SDS011;10308;42.688;23.256;2022-09-01T08:50:18;25.45;;;22.95;;
20298;SDS011;10308;42.688;23.256;2022-09-01T08:52:46;20.98;;;18.92;;
20298;SDS011;10308;42.688;23.256;2022-09-01T08:55:18;18.58;;;16.58;;
20298;SDS011;10308;42.688;23.256;2022-09-01T08:57:50;19.27;;;17.48;;
20298;SDS011;10308;42.688;23.256;2022-09-01T09:00:20;18.45;;;16.60;;
20298;SDS011;10308;42.688;23.256;2022-09-01T09:02:55;19.30;;;17.35;;
20298;SDS011;10308;42.688;23.256;2022-09-01T09:05:29;16.75;;;15.05;;
20298;SDS011;10308;42.688;23.256;2022-09-01T09:08:09;15.73;;;14.23;;
20298;SDS011;10308;42.688;23.256;2022-09-01T09:10:44;17.00;;;15.30;;
20298;SDS011;10308;42.688;23.256;2022-09-01T09:13:19;16.30;;;14.75;;
20298;SDS011;10308;42.688;23.256;2022-09-01T09:15:49;17.25;;;15.65;;
20298;SDS011;10308;42.688;23.256;2022-09-01T09:18:18;15.77;;;14.27;;
20298;SDS011;10308;42.688;23.256;2022-09-01T09:20:48;16.20;;;13.55;;
20298;SDS011;10308;42.688;23.256;2022-09-01T09:23:23;15.55;;;13.90;;
20298;SDS011;10308;42.688;23.256;2022-09-01T09:25:52;15.63;;;13.50;;
20298;SDS011;10308;42.688;23.256;2022-09-01T09:28:19;16.58;;;15.05;;
20298;SDS011;10308;42.688;23.256;2022-09-01T09:30:46;15.80;;;14.27;;
20298;SDS011;10308;42.688;23.256;2022-09-01T09:33:32;16.83;;;15.32;;
20298;SDS011;10308;42.688;23.256;2022-09-01T09:36:14;15.80;;;14.40;;
20298;SDS011;10308;42.688;23.256;2022-09-01T09:38:43;15.02;;;13.63;;
20298;SDS011;10308;42.688;23.256;2022-09-01T09:41:15;14.40;;;13.10;;
20298;SDS011;10308;42.688;23.256;2022-09-01T09:43:45;15.10;;;13.60;;
20298;SDS011;10308;42.688;23.256;2022-09-01T09:46:24;15.00;;;13.50;;
20298;SDS011;10308;42.688;23.256;2022-09-01T09:49:10;14.43;;;12.98;;
20298;SDS011;10308;42.688;23.256;2022-09-01T09:51:39;13.80;;;12.60;;
20298;SDS011;10308;42.688;23.256;2022-09-01T09:54:11;14.02;;;12.68;;
20298;SDS011;10308;42.688;23.256;2022-09-01T09:56:41;12.93;;;11.77;;
20298;SDS011;10308;42.688;23.256;2022-09-01T09:59:17;13.93;;;12.30;;
20298;SDS011;10308;42.688;23.256;2022-09-01T10:01:46;12.80;;;11.55;;
20298;SDS011;10308;42.688;23.256;2022-09-01T10:04:29;13.18;;;11.98;;
20298;SDS011;10308;42.688;23.256;2022-09-01T10:06:58;12.43;;;11.23;;
20298;SDS011;10308;42.688;23.256;2022-09-01T10:09:33;13.25;;;11.85;;
20298;SDS011;10308;42.688;23.256;2022-09-01T10:12:03;13.75;;;12.45;;
20298;SDS011;10308;42.688;23.256;2022-09-01T10:14:33;13.77;;;12.38;;
20298;SDS011;10308;42.688;23.256;2022-09-01T10:17:04;13.85;;;12.38;;
20298;SDS011;10308;42.688;23.256;2022-09-01T10:19:34;12.93;;;11.65;;
20298;SDS011;10308;42.688;23.256;2022-09-01T10:22:04;12.82;;;11.57;;
20298;SDS011;10308;42.688;23.256;2022-09-01T10:24:32;13.77;;;12.35;;
20298;SDS011;10308;42.688;23.256;2022-09-01T10:27:01;13.32;;;12.02;;
20298;SDS011;10308;42.688;23.256;2022-09-01T10:29:33;13.38;;;11.82;;
20298;SDS011;10308;42.688;23.256;2022-09-01T10:32:05;12.60;;;11.40;;
20298;SDS011;10308;42.688;23.256;2022-09-01T10:34:34;13.70;;;11.52;;
20298;SDS011;10308;42.688;23.256;2022-09-01T10:37:02;12.75;;;11.40;;
20298;SDS011;10308;42.688;23.256;2022-09-01T10:39:29;13.20;;;11.40;;
20298;SDS011;10308;42.688;23.256;2022-09-01T10:41:56;12.57;;;11.32;;
20298;SDS011;10308;42.688;23.256;2022-09-01T10:44:33;11.88;;;10.75;;
20298;SDS011;10308;42.688;23.256;2022-09-01T10:47:01;12.45;;;11.25;;
20298;SDS011;10308;42.688;23.256;2022-09-01T10:55:35;12.15;;;10.95;;
20298;SDS011;10308;42.688;23.256;2022-09-01T11:01:10;12.15;;;10.95;;
20298;SDS011;10308;42.688;23.256;2022-09-01T11:03:47;12.43;;;11.23;;
20298;SDS011;10308;42.688;23.256;2022-09-01T11:09:21;13.80;;;12.05;;
20298;SDS011;10308;42.688;23.256;2022-09-01T11:11:50;12.32;;;11.13;;
20298;SDS011;10308;42.688;23.256;2022-09-01T11:14:45;13.30;;;12.05;;
20298;SDS011;10308;42.688;23.256;2022-09-01T11:17:16;14.82;;;13.00;;
20298;SDS011;10308;42.688;23.256;2022-09-01T11:19:45;14.00;;;12.40;;
20298;SDS011;10308;42.688;23.256;2022-09-01T11:28:01;13.38;;;12.07;;
20298;SDS011;10308;42.688;23.256;2022-09-01T11:30:33;15.02;;;13.48;;
20298;SDS011;10308;42.688;23.256;2022-09-01T11:33:08;14.40;;;12.98;;
20298;SDS011;10308;42.688;23.256;2022-09-01T11:35:38;14.15;;;12.75;;
20298;SDS011;10308;42.688;23.256;2022-09-01T11:38:05;14.55;;;13.07;;
20298;SDS011;10308;42.688;23.256;2022-09-01T11:40:33;14.13;;;12.38;;
20298;SDS011;10308;42.688;23.256;2022-09-01T11:43:02;14.02;;;12.60;;
20298;SDS011;10308;42.688;23.256;2022-09-01T11:45:30;13.57;;;12.18;;
20298;SDS011;10308;42.688;23.256;2022-09-01T11:47:59;13.82;;;12.50;;
20298;SDS011;10308;42.688;23.256;2022-09-01T11:50:29;13.68;;;12.27;;
20298;SDS011;10308;42.688;23.256;2022-09-01T11:52:58;13.18;;;11.88;;
20298;SDS011;10308;42.688;23.256;2022-09-01T11:55:28;13.60;;;12.32;;
20298;SDS011;10308;42.688;23.256;2022-09-01T11:57:56;12.18;;;11.15;;
20298;SDS011;10308;42.688;23.256;2022-09-01T12:00:27;13.10;;;11.60;;
20298;SDS011;10308;42.688;23.256;2022-09-01T12:02:56;12.82;;;11.70;;
20298;SDS011;10308;42.688;23.256;2022-09-01T12:05:28;12.85;;;11.65;;
20298;SDS011;10308;42.688;23.256;2022-09-01T12:07:59;11.98;;;10.98;;
20298;SDS011;10308;42.688;23.256;2022-09-01T12:10:29;13.60;;;12.30;;
20298;SDS011;10308;42.688;23.256;2022-09-01T12:13:01;12.38;;;11.07;;
20298;SDS011;10308;42.688;23.256;2022-09-01T12:15:30;12.55;;;11.43;;
20298;SDS011;10308;42.688;23.256;2022-09-01T12:18:09;12.77;;;11.38;;
20298;SDS011;10308;42.688;23.256;2022-09-01T12:20:40;12.40;;;11.30;;
20298;SDS011;10308;42.688;23.256;2022-09-01T12:23:14;12.68;;;11.38;;
20298;SDS011;10308;42.688;23.256;2022-09-01T12:25:43;12.07;;;10.98;;
20298;SDS011;10308;42.688;23.256;2022-09-01T12:28:12;12.23;;;11.13;;
20298;SDS011;10308;42.688;23.256;2022-09-01T12:30:39;11.63;;;10.43;;
20298;SDS011;10308;42.688;23.256;2022-09-01T12:33:07;11.95;;;10.85;;
20298;SDS011;10308;42.688;23.256;2022-09-01T12:35:35;12.32;;;11.10;;
20298;SDS011;10308;42.688;23.256;2022-09-01T12:38:22;12.68;;;11.57;;
20298;SDS011;10308;42.688;23.256;2022-09-01T12:40:50;12.43;;;11.32;;
20298;SDS011;10308;42.688;23.256;2022-09-01T12:43:34;12.90;;;11.38;;
20298;SDS011;10308;42.688;23.256;2022-09-01T12:46:03;12.05;;;10.85;;
20298;SDS011;10308;42.688;23.256;2022-09-01T12:48:31;12.55;;;11.35;;
20298;SDS011;10308;42.688;23.256;2022-09-01T12:50:59;12.10;;;10.90;;
20298;SDS011;10308;42.688;23.256;2022-09-01T12:53:30;12.55;;;11.45;;
20298;SDS011;10308;42.688;23.256;2022-09-01T12:56:03;13.40;;;11.45;;
20298;SDS011;10308;42.688;23.256;2022-09-01T12:58:31;12.52;;;11.38;;
20298;SDS011;10308;42.688;23.256;2022-09-01T13:00:59;13.18;;;11.82;;
20298;SDS011;10308;42.688;23.256;2022-09-01T13:03:29;12.15;;;10.98;;
20298;SDS011;10308;42.688;23.256;2022-09-01T13:05:57;12.82;;;11.60;;
20298;SDS011;10308;42.688;23.256;2022-09-01T13:08:25;13.25;;;11.85;;
20298;SDS011;10308;42.688;23.256;2022-09-01T13:10:56;12.98;;;11.77;;
20298;SDS011;10308;42.688;23.256;2022-09-01T13:13:25;12.98;;;11.77;;
20298;SDS011;10308;42.688;23.256;2022-09-01T13:15:53;12.10;;;10.95;;
20298;SDS011;10308;42.688;23.256;2022-09-01T13:18:21;13.38;;;12.05;;
20298;SDS011;10308;42.688;23.256;2022-09-01T13:20:49;13.25;;;12.05;;
20298;SDS011;10308;42.688;23.256;2022-09-01T13:23:17;13.23;;;11.98;;
20298;SDS011;10308;42.688;23.256;2022-09-01T13:25:44;14.20;;;12.75;;
20298;SDS011;10308;42.688;23.256;2022-09-01T13:28:13;12.60;;;11.35;;
20298;SDS011;10308;42.688;23.256;2022-09-01T13:30:40;13.88;;;12.38;;
20298;SDS011;10308;42.688;23.256;2022-09-01T13:33:08;12.45;;;11.45;;
20298;SDS011;10308;42.688;23.256;2022-09-01T13:35:36;13.68;;;12.30;;
20298;SDS011;10308;42.688;23.256;2022-09-01T13:38:03;12.82;;;11.63;;
20298;SDS011;10308;42.688;23.256;2022-09-01T13:40:30;13.88;;;12.38;;
20298;SDS011;10308;42.688;23.256;2022-09-01T13:42:56;13.43;;;12.02;;
20298;SDS011;10308;42.688;23.256;2022-09-01T13:45:24;14.02;;;12.60;;
20298;SDS011;10308;42.688;23.256;2022-09-01T13:47:51;13.13;;;11.85;;
20298;SDS011;10308;42.688;23.256;2022-09-01T13:50:19;13.25;;;11.90;;
20298;SDS011;10308;42.688;23.256;2022-09-01T13:52:48;13.23;;;12.05;;
20298;SDS011;10308;42.688;23.256;2022-09-01T13:55:17;14.73;;;12.15;;
20298;SDS011;10308;42.688;23.256;2022-09-01T13:57:45;15.63;;;13.18;;
20298;SDS011;10308;42.688;23.256;2022-09-01T14:00:13;13.20;;;11.90;;
20298;SDS011;10308;42.688;23.256;2022-09-01T14:02:43;12.90;;;11.80;;
20298;SDS011;10308;42.688;23.256;2022-09-01T14:05:14;12.90;;;11.68;;
20298;SDS011;10308;42.688;23.256;2022-09-01T14:07:42;13.40;;;12.10;;
20298;SDS011;10308;42.688;23.256;2022-09-01T14:10:09;13.30;;;12.00;;
20298;SDS011;10308;42.688;23.256;2022-09-01T14:12:36;12.65;;;11.55;;
20298;SDS011;10308;42.688;23.256;2022-09-01T14:15:04;11.95;;;10.82;;
20298;SDS011;10308;42.688;23.256;2022-09-01T14:17:31;11.98;;;10.90;;
20298;SDS011;10308;42.688;23.256;2022-09-01T14:19:59;12.07;;;10.98;;
20298;SDS011;10308;42.688;23.256;2022-09-01T14:22:26;13.15;;;11.15;;
20298;SDS011;10308;42.688;23.256;2022-09-01T14:24:54;12.18;;;10.93;;
20298;SDS011;10308;42.688;23.256;2022-09-01T14:27:20;10.70;;;9.82;;
20298;SDS011;10308;42.688;23.256;2022-09-01T14:29:47;12.23;;;11.02;;
20298;SDS011;10308;42.688;23.256;2022-09-01T14:32:17;12.23;;;11.13;;
20298;SDS011;10308;42.688;23.256;2022-09-01T14:34:46;11.88;;;10.88;;
20298;SDS011;10308;42.688;23.256;2022-09-01T14:37:15;12.38;;;11.27;;
20298;SDS011;10308;42.688;23.256;2022-09-01T14:39:41;12.90;;;11.70;;